sensor_id;sensor_type;location;lat;lon;timestamp;pressure;altitude;pressure_sealevel;temperature;humidity
30073;BME280;16897;52.422;13.678;2023-06-22T00:00:58;101487.91;;;25.32;46.15
30073;BME280;16897;52.422;13.678;2023-06-22T00:05:00;101490.06;;;25.29;46.19
30073;BME280;16897;52.422;13.678;2023-06-22T00:09:01;101483.50;;;25.15;46.42
30073;BME280;16897;52.422;13.678;2023-06-22T00:13:03;101506.22;;;25.19;46.31
30073;BME280;16897;52.422;13.678;2023-06-22T00:17:05;101473.69;;;24.98;46.55
30073;BME280;16897;52.422;13.678;2023-06-22T00:21:07;101514.25;;;25.19;46.29
30073;BME280;16897;52.422;13.678;2023-06-22T00:25:10;101518.06;;;25.16;46.85
30073;BME280;16897;52.422;13.678;2023-06-22T00:29:11;101486.88;;;24.91;46.45
30073;BME280;16897;52.422;13.678;2023-06-22T00:33:13;101540.41;;;25.07;46.48
30073;BME280;16897;52.422;13.678;2023-06-22T00:37:16;101546.72;;;24.98;46.96
30073;BME280;16897;52.422;13.678;2023-06-22T00:41:17;101544.88;;;24.99;46.82
30073;BME280;16897;52.422;13.678;2023-06-22T00:45:19;101537.66;;;24.91;46.62
30073;BME280;16897;52.422;13.678;2023-06-22T00:49:21;101539.50;;;24.90;46.98
30073;BME280;16897;52.422;13.678;2023-06-22T00:53:22;101535.94;;;24.82;47.01
30073;BME280;16897;52.422;13.678;2023-06-22T00:57:24;101507.25;;;24.58;46.47
30073;BME280;16897;52.422;13.678;2023-06-22T01:01:30;101540.69;;;24.70;46.88
30073;BME280;16897;52.422;13.678;2023-06-22T01:05:32;101529.75;;;24.55;46.85
30073;BME280;16897;52.422;13.678;2023-06-22T01:09:38;101528.56;;;24.49;46.92
30073;BME280;16897;52.422;13.678;2023-06-22T01:14:12;101563.47;;;24.56;46.80
30073;BME280;16897;52.422;13.678;2023-06-22T01:18:17;101561.56;;;24.48;46.93
30073;BME280;16897;52.422;13.678;2023-06-22T01:22:19;101558.50;;;24.43;46.83
30073;BME280;16897;52.422;13.678;2023-06-22T01:26:30;101546.22;;;24.33;47.24
30073;BME280;16897;52.422;13.678;2023-06-22T01:30:36;101560.28;;;24.35;47.09
30073;BME280;16897;52.422;13.678;2023-06-22T01:34:41;101528.72;;;24.12;47.00
30073;BME280;16897;52.422;13.678;2023-06-22T01:38:43;101557.22;;;24.29;47.37
30073;BME280;16897;52.422;13.678;2023-06-22T01:42:46;101548.31;;;24.21;47.02
30073;BME280;16897;52.422;13.678;2023-06-22T01:46:48;101536.50;;;24.05;47.34
30073;BME280;16897;52.422;13.678;2023-06-22T01:50:50;101567.69;;;24.23;47.44
30073;BME280;16897;52.422;13.678;2023-06-22T01:54:52;101574.19;;;24.20;47.31
30073;BME280;16897;52.422;13.678;2023-06-22T01:59:01;101564.41;;;24.11;47.38
30073;BME280;16897;52.422;13.678;2023-06-22T02:03:23;101576.16;;;24.18;47.43
30073;BME280;16897;52.422;13.678;2023-06-22T02:07:29;101576.78;;;24.12;47.46
30073;BME280;16897;52.422;13.678;2023-06-22T02:11:37;101557.09;;;23.95;47.46
30073;BME280;16897;52.422;13.678;2023-06-22T02:15:41;101572.63;;;24.00;47.50
30073;BME280;16897;52.422;13.678;2023-06-22T02:19:43;101573.78;;;23.97;47.53
30073;BME280;16897;52.422;13.678;2023-06-22T02:23:44;101580.25;;;23.95;47.36
30073;BME280;16897;52.422;13.678;2023-06-22T02:27:46;101571.34;;;23.86;47.81
30073;BME280;16897;52.422;13.678;2023-06-22T02:31:48;101572.97;;;23.69;47.64
30073;BME280;16897;52.422;13.678;2023-06-22T02:35:50;101587.94;;;23.80;47.51
30073;BME280;16897;52.422;13.678;2023-06-22T02:39:51;101600.53;;;23.88;47.63
30073;BME280;16897;52.422;13.678;2023-06-22T02:43:54;101593.41;;;23.78;47.71
30073;BME280;16897;52.422;13.678;2023-06-22T02:47:56;101595.78;;;23.81;47.44
30073;BME280;16897;52.422;13.678;2023-06-22T02:51:59;101585.03;;;23.73;47.55
30073;BME280;16897;52.422;13.678;2023-06-22T02:56:02;101591.34;;;23.72;47.57
30073;BME280;16897;52.422;13.678;2023-06-22T03:00:10;101601.03;;;23.73;47.75
30073;BME280;16897;52.422;13.678;2023-06-22T03:04:20;101587.34;;;23.58;47.60
30073;BME280;16897;52.422;13.678;2023-06-22T03:08:22;101583.34;;;23.45;47.68
30073;BME280;16897;52.422;13.678;2023-06-22T03:12:24;101592.81;;;23.57;47.94
30073;BME280;16897;52.422;13.678;2023-06-22T03:21:33;101596.47;;;23.56;47.84
30073;BME280;16897;52.422;13.678;2023-06-22T03:25:35;101599.44;;;23.53;47.97
30073;BME280;16897;52.422;13.678;2023-06-22T03:29:37;101581.09;;;23.40;48.21
30073;BME280;16897;52.422;13.678;2023-06-22T03:33:40;101605.75;;;23.52;47.90
30073;BME280;16897;52.422;13.678;2023-06-22T03:37:42;101597.63;;;23.44;48.36
30073;BME280;16897;52.422;13.678;2023-06-22T03:41:43;101584.66;;;23.31;48.16
30073;BME280;16897;52.422;13.678;2023-06-22T03:45:45;101588.47;;;23.28;48.26
30073;BME280;16897;52.422;13.678;2023-06-22T03:49:47;101602.03;;;23.35;48.13
30073;BME280;16897;52.422;13.678;2023-06-22T03:53:49;101570.56;;;23.11;48.04
30073;BME280;16897;52.422;13.678;2023-06-22T03:57:50;101603.63;;;23.28;48.36
30073;BME280;16897;52.422;13.678;2023-06-22T04:01:52;101604.75;;;23.25;48.21
30073;BME280;16897;52.422;13.678;2023-06-22T04:05:54;101586.00;;;23.07;48.16
30073;BME280;16897;52.422;13.678;2023-06-22T04:09:56;101570.59;;;22.91;48.58
30073;BME280;16897;52.422;13.678;2023-06-22T04:13:57;101604.66;;;23.07;48.24
30073;BME280;16897;52.422;13.678;2023-06-22T04:17:59;101607.88;;;23.11;48.50
30073;BME280;16897;52.422;13.678;2023-06-22T04:22:00;101596.81;;;23.06;48.48
30073;BME280;16897;52.422;13.678;2023-06-22T04:26:02;101564.56;;;22.89;48.59
30073;BME280;16897;52.422;13.678;2023-06-22T04:30:04;101612.91;;;23.14;48.45
30073;BME280;16897;52.422;13.678;2023-06-22T04:34:07;101625.66;;;23.20;48.78
30073;BME280;16897;52.422;13.678;2023-06-22T04:38:12;101614.91;;;23.12;48.89
30073;BME280;16897;52.422;13.678;2023-06-22T04:42:14;101626.91;;;23.26;49.02
30073;BME280;16897;52.422;13.678;2023-06-22T04:46:16;101626.44;;;23.30;48.75
30073;BME280;16897;52.422;13.678;2023-06-22T04:50:17;101624.50;;;23.32;48.76
30073;BME280;16897;52.422;13.678;2023-06-22T04:54:22;101614.81;;;23.31;49.04
30073;BME280;16897;52.422;13.678;2023-06-22T04:58:24;101638.19;;;23.47;49.24
30073;BME280;16897;52.422;13.678;2023-06-22T05:02:28;101629.59;;;23.53;48.84
30073;BME280;16897;52.422;13.678;2023-06-22T05:06:34;101622.13;;;23.57;49.20
30073;BME280;16897;52.422;13.678;2023-06-22T05:10:35;101642.44;;;23.68;49.03
30073;BME280;16897;52.422;13.678;2023-06-22T05:14:37;101623.94;;;23.66;48.94
30073;BME280;16897;52.422;13.678;2023-06-22T05:18:39;101636.41;;;23.75;49.11
30073;BME280;16897;52.422;13.678;2023-06-22T05:22:40;101640.00;;;23.84;48.96
30073;BME280;16897;52.422;13.678;2023-06-22T05:26:44;101630.56;;;23.90;49.25
30073;BME280;16897;52.422;13.678;2023-06-22T05:30:45;101610.44;;;23.77;49.56
30073;BME280;16897;52.422;13.678;2023-06-22T05:34:47;101655.06;;;24.03;49.34
30073;BME280;16897;52.422;13.678;2023-06-22T05:38:49;101655.44;;;24.08;49.59
30073;BME280;16897;52.422;13.678;2023-06-22T05:42:50;101647.81;;;24.13;49.40
30073;BME280;16897;52.422;13.678;2023-06-22T05:46:52;101639.91;;;24.21;49.19
30073;BME280;16897;52.422;13.678;2023-06-22T05:50:54;101640.28;;;24.26;49.20
30073;BME280;16897;52.422;13.678;2023-06-22T05:54:55;101647.69;;;24.33;49.32
30073;BME280;16897;52.422;13.678;2023-06-22T05:58:57;101661.22;;;24.49;49.75
30073;BME280;16897;52.422;13.678;2023-06-22T06:02:59;101663.81;;;24.59;49.79
30073;BME280;16897;52.422;13.678;2023-06-22T06:07:04;101615.06;;;24.39;49.50
30073;BME280;16897;52.422;13.678;2023-06-22T06:11:06;101654.22;;;24.66;49.51
30073;BME280;16897;52.422;13.678;2023-06-22T06:15:07;101661.81;;;24.79;49.70
30073;BME280;16897;52.422;13.678;2023-06-22T06:19:09;101667.38;;;24.85;49.55
30073;BME280;16897;52.422;13.678;2023-06-22T06:23:10;101655.59;;;24.96;49.41
30073;BME280;16897;52.422;13.678;2023-06-22T06:27:12;101646.94;;;25.02;49.66
30073;BME280;16897;52.422;13.678;2023-06-22T06:31:14;101658.78;;;25.17;49.57
30073;BME280;16897;52.422;13.678;2023-06-22T06:35:18;101637.41;;;25.17;49.63
30073;BME280;16897;52.422;13.678;2023-06-22T06:39:19;101650.69;;;25.35;49.28
30073;BME280;16897;52.422;13.678;2023-06-22T06:43:21;101656.28;;;25.50;49.43
30073;BME280;16897;52.422;13.678;2023-06-22T06:47:24;101654.97;;;25.54;49.33
30073;BME280;16897;52.422;13.678;2023-06-22T06:51:25;101656.50;;;25.65;49.48
30073;BME280;16897;52.422;13.678;2023-06-22T06:55:27;101665.09;;;25.77;49.68
30073;BME280;16897;52.422;13.678;2023-06-22T06:59:30;101635.00;;;25.75;49.23
30073;BME280;16897;52.422;13.678;2023-06-22T07:03:31;101653.16;;;25.97;49.62
30073;BME280;16897;52.422;13.678;2023-06-22T07:07:34;101640.47;;;26.08;49.05
30073;BME280;16897;52.422;13.678;2023-06-22T07:11:36;101642.81;;;26.19;49.32
30073;BME280;16897;52.422;13.678;2023-06-22T07:15:37;101637.00;;;26.32;49.13
30073;BME280;16897;52.422;13.678;2023-06-22T07:19:39;101613.06;;;26.46;49.10
30073;BME280;16897;52.422;13.678;2023-06-22T07:23:41;101609.75;;;26.61;49.16
30073;BME280;16897;52.422;13.678;2023-06-22T07:27:45;101602.53;;;26.69;49.05
30073;BME280;16897;52.422;13.678;2023-06-22T07:31:48;101613.91;;;26.88;49.36
30073;BME280;16897;52.422;13.678;2023-06-22T07:35:51;101604.66;;;26.99;48.84
30073;BME280;16897;52.422;13.678;2023-06-22T07:39:53;101603.50;;;27.01;48.97
30073;BME280;16897;52.422;13.678;2023-06-22T07:43:59;101616.38;;;27.14;48.73
30073;BME280;16897;52.422;13.678;2023-06-22T07:48:01;101611.16;;;27.12;48.47
30073;BME280;16897;52.422;13.678;2023-06-22T07:52:03;101611.53;;;27.18;48.76
30073;BME280;16897;52.422;13.678;2023-06-22T07:56:06;101610.16;;;27.22;48.72
30073;BME280;16897;52.422;13.678;2023-06-22T08:00:09;101610.31;;;27.28;48.37
30073;BME280;16897;52.422;13.678;2023-06-22T08:04:17;101593.19;;;27.29;48.42
30073;BME280;16897;52.422;13.678;2023-06-22T08:08:19;101588.34;;;27.33;48.53
30073;BME280;16897;52.422;13.678;2023-06-22T08:12:20;101611.75;;;27.47;48.55
30073;BME280;16897;52.422;13.678;2023-06-22T08:16:22;101612.91;;;27.53;48.49
30073;BME280;16897;52.422;13.678;2023-06-22T08:20:24;101607.66;;;27.59;48.45
30073;BME280;16897;52.422;13.678;2023-06-22T08:24:25;101612.16;;;27.67;48.32
30073;BME280;16897;52.422;13.678;2023-06-22T08:28:27;101609.28;;;27.69;48.35
30073;BME280;16897;52.422;13.678;2023-06-22T08:32:28;101603.06;;;27.76;48.03
30073;BME280;16897;52.422;13.678;2023-06-22T08:36:30;101601.72;;;27.80;47.88
30073;BME280;16897;52.422;13.678;2023-06-22T08:40:34;101604.53;;;27.87;47.65
30073;BME280;16897;52.422;13.678;2023-06-22T08:44:35;101591.09;;;27.87;47.73
30073;BME280;16897;52.422;13.678;2023-06-22T08:48:37;101601.59;;;27.97;47.78
30073;BME280;16897;52.422;13.678;2023-06-22T08:52:39;101601.53;;;28.05;47.54
30073;BME280;16897;52.422;13.678;2023-06-22T08:56:42;101604.53;;;28.10;47.53
30073;BME280;16897;52.422;13.678;2023-06-22T09:00:45;101611.88;;;28.16;47.71
30073;BME280;16897;52.422;13.678;2023-06-22T09:04:47;101597.44;;;28.17;47.70
30073;BME280;16897;52.422;13.678;2023-06-22T09:08:48;101587.00;;;28.22;47.36
30073;BME280;16897;52.422;13.678;2023-06-22T09:12:50;101602.03;;;28.32;47.04
30073;BME280;16897;52.422;13.678;2023-06-22T09:16:51;101581.66;;;28.37;46.96
30073;BME280;16897;52.422;13.678;2023-06-22T09:20:53;101589.22;;;28.57;46.92
30073;BME280;16897;52.422;13.678;2023-06-22T09:24:55;101594.19;;;28.68;46.77
30073;BME280;16897;52.422;13.678;2023-06-22T09:28:57;101591.06;;;28.79;46.85
30073;BME280;16897;52.422;13.678;2023-06-22T09:32:59;101586.59;;;28.86;46.63
30073;BME280;16897;52.422;13.678;2023-06-22T09:37:01;101582.31;;;28.92;46.61
30073;BME280;16897;52.422;13.678;2023-06-22T09:41:03;101590.06;;;28.95;46.48
30073;BME280;16897;52.422;13.678;2023-06-22T09:45:05;101588.66;;;28.99;46.50
30073;BME280;16897;52.422;13.678;2023-06-22T09:49:07;101590.97;;;29.02;46.27
30073;BME280;16897;52.422;13.678;2023-06-22T09:53:08;101557.66;;;28.88;46.31
30073;BME280;16897;52.422;13.678;2023-06-22T09:57:10;101575.66;;;29.03;45.85
30073;BME280;16897;52.422;13.678;2023-06-22T10:01:11;101569.09;;;29.05;46.35
30073;BME280;16897;52.422;13.678;2023-06-22T10:05:13;101580.78;;;29.13;46.28
30073;BME280;16897;52.422;13.678;2023-06-22T10:09:15;101573.28;;;29.08;46.20
30073;BME280;16897;52.422;13.678;2023-06-22T10:13:16;101584.53;;;29.11;45.70
30073;BME280;16897;52.422;13.678;2023-06-22T10:17:18;101576.91;;;29.15;45.68
30073;BME280;16897;52.422;13.678;2023-06-22T10:21:19;101582.63;;;29.27;45.61
30073;BME280;16897;52.422;13.678;2023-06-22T10:25:21;101576.88;;;29.30;45.66
30073;BME280;16897;52.422;13.678;2023-06-22T10:29:23;101582.06;;;29.31;45.25
30073;BME280;16897;52.422;13.678;2023-06-22T10:33:24;101582.91;;;29.32;45.15
30073;BME280;16897;52.422;13.678;2023-06-22T10:37:26;101571.50;;;29.30;45.17
30073;BME280;16897;52.422;13.678;2023-06-22T10:41:27;101572.16;;;29.32;44.88
30073;BME280;16897;52.422;13.678;2023-06-22T10:45:31;101546.38;;;29.23;45.18
30073;BME280;16897;52.422;13.678;2023-06-22T10:49:32;101562.03;;;29.34;44.63
30073;BME280;16897;52.422;13.678;2023-06-22T10:53:34;101561.66;;;29.37;44.71
30073;BME280;16897;52.422;13.678;2023-06-22T10:57:35;101554.69;;;29.43;44.80
30073;BME280;16897;52.422;13.678;2023-06-22T11:01:37;101554.50;;;29.44;44.62
30073;BME280;16897;52.422;13.678;2023-06-22T11:05:39;101525.91;;;29.43;44.84
30073;BME280;16897;52.422;13.678;2023-06-22T11:09:43;101535.56;;;29.52;44.65
30073;BME280;16897;52.422;13.678;2023-06-22T11:13:44;101520.06;;;29.54;44.22
30073;BME280;16897;52.422;13.678;2023-06-22T11:17:46;101525.78;;;29.66;44.70
30073;BME280;16897;52.422;13.678;2023-06-22T11:21:47;101525.72;;;29.81;44.43
30073;BME280;16897;52.422;13.678;2023-06-22T11:25:49;101526.22;;;29.91;44.27
30073;BME280;16897;52.422;13.678;2023-06-22T11:29:50;101514.75;;;30.04;44.07
30073;BME280;16897;52.422;13.678;2023-06-22T11:33:54;101504.66;;;30.13;44.02
30073;BME280;16897;52.422;13.678;2023-06-22T11:37:55;101502.75;;;30.28;44.08
30073;BME280;16897;52.422;13.678;2023-06-22T11:41:57;101505.72;;;30.40;43.71
30073;BME280;16897;52.422;13.678;2023-06-22T11:45:59;101493.97;;;30.48;43.52
30073;BME280;16897;52.422;13.678;2023-06-22T11:50:02;101495.28;;;30.58;43.55
30073;BME280;16897;52.422;13.678;2023-06-22T11:54:03;101497.81;;;30.67;43.77
30073;BME280;16897;52.422;13.678;2023-06-22T11:58:05;101497.88;;;30.73;43.41
30073;BME280;16897;52.422;13.678;2023-06-22T12:02:07;101505.81;;;30.81;43.64
30073;BME280;16897;52.422;13.678;2023-06-22T12:06:10;101494.41;;;30.86;43.40
30073;BME280;16897;52.422;13.678;2023-06-22T12:10:12;101499.06;;;30.99;43.27
30073;BME280;16897;52.422;13.678;2023-06-22T12:14:14;101504.31;;;31.14;43.50
30073;BME280;16897;52.422;13.678;2023-06-22T12:18:15;101483.56;;;31.14;43.26
30073;BME280;16897;52.422;13.678;2023-06-22T12:22:17;101479.44;;;31.25;43.47
30073;BME280;16897;52.422;13.678;2023-06-22T12:26:18;101475.72;;;31.33;43.20
30073;BME280;16897;52.422;13.678;2023-06-22T12:30:20;101473.06;;;31.46;42.90
30073;BME280;16897;52.422;13.678;2023-06-22T12:34:22;101452.91;;;31.48;42.92
30073;BME280;16897;52.422;13.678;2023-06-22T12:38:23;101458.97;;;31.57;42.87
30073;BME280;16897;52.422;13.678;2023-06-22T12:42:28;101454.19;;;31.59;42.69
30073;BME280;16897;52.422;13.678;2023-06-22T12:46:29;101454.19;;;31.52;42.42
30073;BME280;16897;52.422;13.678;2023-06-22T12:50:37;101442.56;;;31.52;42.39
30073;BME280;16897;52.422;13.678;2023-06-22T12:54:39;101443.38;;;31.59;42.33
30073;BME280;16897;52.422;13.678;2023-06-22T12:58:40;101423.88;;;31.64;42.14
30073;BME280;16897;52.422;13.678;2023-06-22T13:02:42;101418.47;;;31.70;41.97
30073;BME280;16897;52.422;13.678;2023-06-22T13:06:44;101422.00;;;31.78;41.89
30073;BME280;16897;52.422;13.678;2023-06-22T13:10:48;101407.44;;;31.85;41.95
30073;BME280;16897;52.422;13.678;2023-06-22T13:14:50;101399.78;;;31.95;41.92
30073;BME280;16897;52.422;13.678;2023-06-22T13:18:51;101379.81;;;31.90;41.63
30073;BME280;16897;52.422;13.678;2023-06-22T13:22:53;101399.75;;;32.09;41.54
30073;BME280;16897;52.422;13.678;2023-06-22T13:26:55;101386.22;;;32.15;41.85
30073;BME280;16897;52.422;13.678;2023-06-22T13:30:56;101368.56;;;32.20;41.64
30073;BME280;16897;52.422;13.678;2023-06-22T13:34:58;101390.16;;;32.33;41.49
30073;BME280;16897;52.422;13.678;2023-06-22T13:39:00;101376.19;;;32.36;41.33
30073;BME280;16897;52.422;13.678;2023-06-22T13:43:01;101341.09;;;32.23;41.43
30073;BME280;16897;52.422;13.678;2023-06-22T13:47:03;101369.94;;;32.49;41.58
30073;BME280;16897;52.422;13.678;2023-06-22T13:51:05;101377.63;;;32.52;41.24
30073;BME280;16897;52.422;13.678;2023-06-22T13:55:08;101350.97;;;32.55;41.08
30073;BME280;16897;52.422;13.678;2023-06-22T13:59:09;101350.16;;;32.55;41.14
30073;BME280;16897;52.422;13.678;2023-06-22T14:03:11;101327.72;;;32.48;41.34
30073;BME280;16897;52.422;13.678;2023-06-22T14:07:12;101327.44;;;32.63;41.03
30073;BME280;16897;52.422;13.678;2023-06-22T14:11:13;101325.94;;;32.73;40.92
30073;BME280;16897;52.422;13.678;2023-06-22T14:15:15;101313.22;;;32.74;40.91
30073;BME280;16897;52.422;13.678;2023-06-22T14:19:17;101319.59;;;32.86;40.73
30073;BME280;16897;52.422;13.678;2023-06-22T14:23:19;101307.94;;;32.86;40.82
30073;BME280;16897;52.422;13.678;2023-06-22T14:27:21;101269.38;;;32.65;40.52
30073;BME280;16897;52.422;13.678;2023-06-22T14:31:22;101303.31;;;32.93;40.57
30073;BME280;16897;52.422;13.678;2023-06-22T14:35:24;101297.47;;;32.96;40.51
30073;BME280;16897;52.422;13.678;2023-06-22T14:39:26;101291.88;;;32.91;40.37
30073;BME280;16897;52.422;13.678;2023-06-22T14:43:27;101292.88;;;32.96;40.08
30073;BME280;16897;52.422;13.678;2023-06-22T14:47:29;101279.22;;;32.84;40.35
30073;BME280;16897;52.422;13.678;2023-06-22T14:51:30;101264.19;;;32.89;39.86
30073;BME280;16897;52.422;13.678;2023-06-22T14:55:32;101253.63;;;32.87;40.28
30073;BME280;16897;52.422;13.678;2023-06-22T14:59:33;101245.44;;;32.94;39.96
30073;BME280;16897;52.422;13.678;2023-06-22T15:03:35;101236.94;;;32.90;39.89
30073;BME280;16897;52.422;13.678;2023-06-22T15:07:37;101230.28;;;32.86;39.84
30073;BME280;16897;52.422;13.678;2023-06-22T15:11:39;101219.88;;;32.90;39.82
30073;BME280;16897;52.422;13.678;2023-06-22T15:15:40;101226.94;;;32.91;39.79
30073;BME280;16897;52.422;13.678;2023-06-22T15:19:42;101199.97;;;32.77;39.99
30073;BME280;16897;52.422;13.678;2023-06-22T15:23:43;101216.94;;;32.91;39.42
30073;BME280;16897;52.422;13.678;2023-06-22T15:27:45;101218.03;;;32.83;39.40
30073;BME280;16897;52.422;13.678;2023-06-22T15:31:47;101228.28;;;32.81;39.07
30073;BME280;16897;52.422;13.678;2023-06-22T15:35:48;101221.63;;;32.77;39.27
30073;BME280;16897;52.422;13.678;2023-06-22T15:39:49;101212.25;;;32.80;39.33
30073;BME280;16897;52.422;13.678;2023-06-22T15:43:51;101206.38;;;32.83;39.51
30073;BME280;16897;52.422;13.678;2023-06-22T15:47:53;101210.09;;;32.89;39.18
30073;BME280;16897;52.422;13.678;2023-06-22T15:51:55;101183.75;;;32.77;39.17
30073;BME280;16897;52.422;13.678;2023-06-22T15:55:56;101193.03;;;32.88;39.38
30073;BME280;16897;52.422;13.678;2023-06-22T15:59:58;101158.22;;;32.73;38.90
30073;BME280;16897;52.422;13.678;2023-06-22T16:04:00;101155.72;;;32.72;38.69
30073;BME280;16897;52.422;13.678;2023-06-22T16:08:01;101158.22;;;32.73;38.79
30073;BME280;16897;52.422;13.678;2023-06-22T16:12:03;101183.72;;;32.84;38.72
30073;BME280;16897;52.422;13.678;2023-06-22T16:16:05;101185.19;;;32.80;39.07
30073;BME280;16897;52.422;13.678;2023-06-22T16:20:08;101138.38;;;32.54;38.79
30073;BME280;16897;52.422;13.678;2023-06-22T16:24:09;101167.34;;;32.72;38.81
30073;BME280;16897;52.422;13.678;2023-06-22T16:28:11;101135.41;;;32.63;38.61
30073;BME280;16897;52.422;13.678;2023-06-22T16:32:13;101142.00;;;32.67;38.76
30073;BME280;16897;52.422;13.678;2023-06-22T16:36:15;101133.16;;;32.59;38.52
30073;BME280;16897;52.422;13.678;2023-06-22T16:40:16;101099.53;;;32.49;39.01
30073;BME280;16897;52.422;13.678;2023-06-22T16:44:21;101062.41;;;32.31;38.89
30073;BME280;16897;52.422;13.678;2023-06-22T16:48:23;101100.56;;;32.48;38.81
30073;BME280;16897;52.422;13.678;2023-06-22T16:52:25;101100.19;;;32.37;38.54
30073;BME280;16897;52.422;13.678;2023-06-22T16:56:26;101082.59;;;32.28;38.73
30073;BME280;16897;52.422;13.678;2023-06-22T17:00:28;101081.59;;;32.23;38.50
30073;BME280;16897;52.422;13.678;2023-06-22T17:04:30;101073.63;;;32.03;38.39
30073;BME280;16897;52.422;13.678;2023-06-22T17:08:34;101098.75;;;32.10;38.28
30073;BME280;16897;52.422;13.678;2023-06-22T17:12:37;101070.59;;;31.92;38.79
30073;BME280;16897;52.422;13.678;2023-06-22T17:16:39;101057.97;;;31.80;38.71
30073;BME280;16897;52.422;13.678;2023-06-22T17:20:43;101069.81;;;31.79;38.70
30073;BME280;16897;52.422;13.678;2023-06-22T17:24:44;101060.34;;;31.63;38.20
30073;BME280;16897;52.422;13.678;2023-06-22T17:28:51;101091.25;;;31.73;38.23
30073;BME280;16897;52.422;13.678;2023-06-22T17:32:54;101047.97;;;31.42;38.44
30073;BME280;16897;52.422;13.678;2023-06-22T17:36:56;101073.88;;;31.56;38.33
30073;BME280;16897;52.422;13.678;2023-06-22T17:41:02;101063.06;;;31.56;38.45
30073;BME280;16897;52.422;13.678;2023-06-22T17:45:04;101048.38;;;31.45;38.38
30073;BME280;16897;52.422;13.678;2023-06-22T17:49:10;101039.00;;;31.48;38.18
30073;BME280;16897;52.422;13.678;2023-06-22T17:53:12;101032.19;;;31.32;38.68
30073;BME280;16897;52.422;13.678;2023-06-22T17:57:17;101016.25;;;31.24;38.49
30073;BME280;16897;52.422;13.678;2023-06-22T18:01:33;101016.88;;;31.26;38.64
30073;BME280;16897;52.422;13.678;2023-06-22T18:05:36;100998.47;;;31.09;38.55
30073;BME280;16897;52.422;13.678;2023-06-22T18:09:39;101003.91;;;31.03;38.48
30073;BME280;16897;52.422;13.678;2023-06-22T18:13:41;100996.69;;;30.90;38.49
30073;BME280;16897;52.422;13.678;2023-06-22T18:17:44;100999.16;;;30.92;38.30
30073;BME280;16897;52.422;13.678;2023-06-22T18:21:46;100941.53;;;30.59;38.67
30073;BME280;16897;52.422;13.678;2023-06-22T18:25:50;100989.22;;;30.79;38.65
30073;BME280;16897;52.422;13.678;2023-06-22T18:29:52;100975.53;;;30.67;38.42
30073;BME280;16897;52.422;13.678;2023-06-22T18:33:57;100981.38;;;30.57;38.40
30073;BME280;16897;52.422;13.678;2023-06-22T18:38:02;100990.50;;;30.50;38.32
30073;BME280;16897;52.422;13.678;2023-06-22T18:42:07;101008.78;;;30.41;38.38
30073;BME280;16897;52.422;13.678;2023-06-22T18:46:51;101004.22;;;30.41;38.54
30073;BME280;16897;52.422;13.678;2023-06-22T18:51:09;100985.53;;;30.20;38.38
30073;BME280;16897;52.422;13.678;2023-06-22T18:55:11;100988.66;;;30.24;38.54
30073;BME280;16897;52.422;13.678;2023-06-22T18:59:14;101001.13;;;30.25;38.67
30073;BME280;16897;52.422;13.678;2023-06-22T19:03:31;100961.50;;;30.12;38.55
30073;BME280;16897;52.422;13.678;2023-06-22T19:12:16;100914.66;;;29.99;38.37
30073;BME280;16897;52.422;13.678;2023-06-22T19:16:18;100906.38;;;29.81;38.45
30073;BME280;16897;52.422;13.678;2023-06-22T19:20:32;100947.41;;;29.83;38.51
30073;BME280;16897;52.422;13.678;2023-06-22T19:25:02;100949.88;;;29.78;38.73
30073;BME280;16897;52.422;13.678;2023-06-22T19:29:14;100937.25;;;29.72;38.41
30073;BME280;16897;52.422;13.678;2023-06-22T19:33:17;100938.72;;;29.68;38.51
30073;BME280;16897;52.422;13.678;2023-06-22T19:37:18;100948.22;;;29.64;38.54
30073;BME280;16897;52.422;13.678;2023-06-22T19:41:23;100942.81;;;29.57;38.66
30073;BME280;16897;52.422;13.678;2023-06-22T19:45:25;100940.91;;;29.44;38.47
30073;BME280;16897;52.422;13.678;2023-06-22T19:49:26;100932.81;;;29.31;38.48
30073;BME280;16897;52.422;13.678;2023-06-22T19:53:27;100954.31;;;29.38;38.89
30073;BME280;16897;52.422;13.678;2023-06-22T19:57:35;100937.78;;;29.34;38.71
30073;BME280;16897;52.422;13.678;2023-06-22T20:01:38;100933.44;;;29.33;38.73
30073;BME280;16897;52.422;13.678;2023-06-22T20:05:42;100908.38;;;29.19;38.85
30073;BME280;16897;52.422;13.678;2023-06-22T20:09:43;100860.31;;;29.09;38.72
30073;BME280;16897;52.422;13.678;2023-06-22T20:13:47;100860.72;;;29.06;38.73
30073;BME280;16897;52.422;13.678;2023-06-22T20:18:01;100866.31;;;29.05;38.81
30073;BME280;16897;52.422;13.678;2023-06-22T20:22:06;100868.31;;;29.03;38.47
30073;BME280;16897;52.422;13.678;2023-06-22T20:26:09;100845.72;;;28.84;38.76
30073;BME280;16897;52.422;13.678;2023-06-22T20:30:19;100882.53;;;28.83;38.75
30073;BME280;16897;52.422;13.678;2023-06-22T20:34:21;100897.44;;;28.79;38.74
30073;BME280;16897;52.422;13.678;2023-06-22T20:38:23;100912.75;;;28.85;38.72
30073;BME280;16897;52.422;13.678;2023-06-22T20:42:24;100949.97;;;28.82;38.70
30073;BME280;16897;52.422;13.678;2023-06-22T20:46:26;101097.72;;;28.68;38.56
30073;BME280;16897;52.422;13.678;2023-06-22T20:50:31;101084.56;;;28.52;39.10
30073;BME280;16897;52.422;13.678;2023-06-22T20:54:32;101093.44;;;28.31;38.96
30073;BME280;16897;52.422;13.678;2023-06-22T20:58:35;101077.31;;;27.88;39.01
30073;BME280;16897;52.422;13.678;2023-06-22T21:02:36;100953.06;;;27.36;39.09